Applegate, Oregon
Current Conditions -  °F | °C
As of 12:53 AM on Monday 20 Oct 2014 (Local Time) from KMFR Reporting Station
Broken Clouds Broken Clouds  
Wind Chill: 13°   Ceiling: 9000
Heat Index: 13°   Visibility: 10mi
Dew Point: 11°   Wind: 3mph
Humidity: 84%   Direction: 180°S
Pressure: 29.78"   Gusts: NA
Location:  42.1499°N, 123.043°W
Report Text: KMFR 200753Z AUTO 18003KT 10SM FEW070 BKN090 13/11 A2978 RMK AO2 SLP076 T01330106 402610089
Loading
Personal Weather Stations






























Interactive Weather Map
Tropical Storm Tracking
New forecast layout! Learn more

10-Day Weather Forecast

Advertisements
Track Severe Weather on mobile